Time;durP1;ratioP1;P1;durP2;ratioP2;P2;SDS_P1;SDS_P2;PMS_P1;PMS_P2;Temp;Humidity;BMP_temperature;BMP_pressure;BME280_temperature;BME280_humidity;BME280_pressure;Samples;Min_cycle;Max_cycle;Signal;HPM_P1;HPM_P2
2022/11/24 00:00:50;;;;;;;130.82;55.38;;;5.80;99.90;;;;;;5097113;28;20058;-63
2022/11/24 00:03:16;;;;;;;141.85;56.50;;;5.70;99.90;;;;;;5097417;28;20032;-63
2022/11/24 00:05:42;;;;;;;138.82;55.25;;;5.70;99.90;;;;;;5097071;28;20035;-63
2022/11/24 00:08:08;;;;;;;109.10;43.75;;;5.60;99.90;;;;;;5097506;28;20091;-63
2022/11/24 00:10:34;;;;;;;90.72;36.17;;;5.60;99.90;;;;;;5096940;28;20484;-63
2022/11/24 00:13:00;;;;;;;46.60;21.48;;;5.70;99.90;;;;;;5097455;28;20020;-63
2022/11/24 00:15:26;;;;;;;32.45;16.08;;;5.70;99.90;;;;;;5110814;28;20052;-63
2022/11/24 00:17:52;;;;;;;31.30;14.90;;;5.60;99.90;;;;;;5113284;28;20409;-63
2022/11/24 00:20:17;;;;;;;31.30;15.32;;;5.60;99.90;;;;;;5097015;28;20542;-63
2022/11/24 00:22:43;;;;;;;29.45;14.48;;;5.70;99.90;;;;;;5096926;28;20031;-62
2022/11/24 00:25:09;;;;;;;34.17;15.50;;;5.80;99.90;;;;;;5096911;28;20036;-63
2022/11/24 00:27:35;;;;;;;29.60;15.05;;;5.80;99.90;;;;;;5096963;28;20113;-63
2022/11/24 00:30:01;;;;;;;29.58;13.90;;;5.80;99.90;;;;;;5096762;28;20032;-63
2022/11/24 00:32:28;;;;;;;27.92;14.15;;;5.80;99.90;;;;;;5096826;28;20099;-63
2022/11/24 00:34:54;;;;;;;31.52;14.68;;;5.90;99.90;;;;;;5096754;28;20028;-63
2022/11/24 00:37:20;;;;;;;32.88;15.70;;;5.80;99.90;;;;;;5096781;28;20020;-63
2022/11/24 00:39:46;;;;;;;41.05;17.55;;;5.70;99.90;;;;;;5096555;28;20242;-63
2022/11/24 00:42:13;;;;;;;33.08;16.88;;;5.70;99.90;;;;;;5096657;28;20286;-63
2022/11/24 00:44:39;;;;;;;41.25;17.55;;;5.60;99.90;;;;;;5096473;28;20020;-63
2022/11/24 00:47:05;;;;;;;27.80;14.02;;;5.50;99.90;;;;;;5096434;28;20043;-62
2022/11/24 00:49:31;;;;;;;37.50;17.35;;;5.50;99.90;;;;;;5095971;28;20032;-63
2022/11/24 00:51:57;;;;;;;34.13;16.60;;;5.40;99.90;;;;;;5097822;28;20036;-63
2022/11/24 00:54:23;;;;;;;30.45;15.05;;;5.40;99.90;;;;;;5116455;28;20016;-63
2022/11/24 00:56:49;;;;;;;30.13;14.20;;;5.40;99.90;;;;;;5116468;28;20023;-63
2022/11/24 00:59:14;;;;;;;32.35;14.88;;;5.40;99.90;;;;;;5116744;28;20084;-63
2022/11/24 01:01:41;;;;;;;39.97;17.15;;;5.50;99.90;;;;;;5098151;28;20063;-63
2022/11/24 01:04:07;;;;;;;30.90;15.65;;;5.50;99.90;;;;;;5116456;28;20038;-63
2022/11/24 01:06:34;;;;;;;34.50;16.55;;;5.50;99.90;;;;;;5116411;28;20020;-63
2022/11/24 01:09:01;;;;;;;36.95;16.38;;;5.50;99.90;;;;;;5116530;28;20035;-63
2022/11/24 01:14:17;;;;;;;32.60;15.80;;;5.50;99.90;;;;;;5093843;28;20089;-63
2022/11/24 01:16:43;;;;;;;34.20;15.45;;;5.50;99.90;;;;;;5095886;28;20024;-63
2022/11/24 01:19:09;;;;;;;45.67;20.65;;;5.60;99.90;;;;;;5095671;28;20047;-63
2022/11/24 01:21:35;;;;;;;74.30;31.40;;;5.60;99.90;;;;;;5095792;28;20032;-63
2022/11/24 01:24:01;;;;;;;88.22;39.50;;;5.70;99.90;;;;;;5095734;28;20529;-62
2022/11/24 01:26:27;;;;;;;86.47;42.10;;;5.60;99.90;;;;;;5077245;28;20067;-63
2022/11/24 01:28:54;;;;;;;95.13;45.33;;;5.60;99.90;;;;;;5095780;28;20051;-63
2022/11/24 01:31:20;;;;;;;102.03;49.80;;;5.60;99.90;;;;;;5095601;28;20370;-63
2022/11/24 01:33:46;;;;;;;108.93;50.90;;;5.60;99.90;;;;;;5095196;28;20501;-62
2022/11/24 01:36:12;;;;;;;97.70;46.50;;;5.60;99.90;;;;;;5095762;28;20016;-62
2022/11/24 01:38:38;;;;;;;105.35;50.72;;;5.60;99.90;;;;;;5095154;28;20437;-62
2022/11/24 01:41:18;;;;;;;109.15;53.80;;;5.70;99.90;;;;;;5095486;28;20024;-63
2022/11/24 01:43:45;;;;;;;131.18;60.50;;;5.80;99.90;;;;;;5095382;28;20032;-62
2022/11/24 01:46:52;;;;;;;107.20;48.33;;;5.80;99.90;;;;;;5095401;28;20081;-63
2022/11/24 01:49:24;;;;;;;89.35;40.75;;;5.70;99.90;;;;;;4993082;28;20037;-63
2022/11/24 01:52:25;;;;;;;91.15;41.42;;;5.60;99.90;;;;;;4993229;28;20042;-62
2022/11/24 01:54:55;;;;;;;94.57;41.30;;;5.60;99.90;;;;;;4982745;28;20034;-62
2022/11/24 01:57:25;;;;;;;104.30;45.55;;;5.70;99.90;;;;;;4993515;28;20427;-63
2022/11/24 01:59:55;;;;;;;112.18;51.15;;;5.70;99.90;;;;;;4993004;28;20109;-63
2022/11/24 02:02:27;;;;;;;138.85;58.65;;;5.70;99.90;;;;;;4993036;28;20105;-63
2022/11/24 02:04:53;;;;;;;142.25;62.13;;;5.70;99.90;;;;;;4992598;28;20049;-63
2022/11/24 02:07:19;;;;;;;178.32;72.13;;;5.70;99.90;;;;;;4992946;28;20038;-63
2022/11/24 02:09:53;;;;;;;279.10;107.32;;;5.70;99.90;;;;;;4992874;28;20049;-63
2022/11/24 02:12:20;;;;;;;293.83;109.38;;;5.70;99.90;;;;;;4993021;28;20026;-62
2022/11/24 02:14:47;;;;;;;184.75;70.50;;;5.70;99.90;;;;;;5000143;28;20061;-63
2022/11/24 02:17:12;;;;;;;127.78;56.40;;;5.60;99.90;;;;;;5012701;28;20030;-62
2022/11/24 02:19:38;;;;;;;114.22;50.83;;;5.60;99.90;;;;;;5048233;28;20039;-63
2022/11/24 02:22:14;;;;;;;76.82;38.53;;;5.50;99.90;;;;;;5115007;28;20062;-63
2022/11/24 02:24:50;;;;;;;64.82;30.58;;;5.30;99.90;;;;;;5114945;28;20032;-62
2022/11/24 02:27:18;;;;;;;50.72;26.23;;;5.10;99.90;;;;;;5096842;28;20085;-63
2022/11/24 02:29:44;;;;;;;48.53;24.95;;;5.00;99.90;;;;;;5114646;28;20032;-63
2022/11/24 02:32:10;;;;;;;58.65;30.23;;;4.90;99.90;;;;;;5096703;28;20028;-63
2022/11/24 02:34:37;;;;;;;61.15;31.73;;;4.80;99.90;;;;;;5114647;28;20024;-63
2022/11/24 02:37:02;;;;;;;81.65;40.88;;;4.60;99.90;;;;;;5114738;28;20453;-63
2022/11/24 02:39:28;;;;;;;71.10;33.85;;;4.70;99.90;;;;;;5114702;28;20163;-62
2022/11/24 02:42:13;;;;;;;63.10;32.28;;;4.60;99.90;;;;;;5114840;28;20469;-63
2022/11/24 02:44:44;;;;;;;98.63;47.72;;;4.60;99.90;;;;;;5114513;28;20028;-63
2022/11/24 02:47:11;;;;;;;97.78;47.10;;;4.50;99.90;;;;;;5114771;28;20055;-63
2022/11/24 02:49:38;;;;;;;89.25;43.40;;;4.40;99.90;;;;;;5114053;28;20027;-63
2022/11/24 02:52:05;;;;;;;74.05;37.28;;;4.40;99.90;;;;;;5114446;28;20038;-62
2022/11/24 02:54:31;;;;;;;72.45;35.83;;;4.30;99.90;;;;;;5114443;28;20016;-63
2022/11/24 02:56:57;;;;;;;65.72;33.35;;;4.30;99.90;;;;;;5114654;28;20027;-63
2022/11/24 02:59:23;;;;;;;75.28;37.47;;;4.20;99.90;;;;;;5114571;28;20038;-63
2022/11/24 03:01:49;;;;;;;88.15;41.22;;;4.10;99.90;;;;;;5114412;28;20023;-63
2022/11/24 03:04:15;;;;;;;82.47;39.38;;;4.10;99.90;;;;;;5114389;28;20020;-63
2022/11/24 03:06:42;;;;;;;96.10;47.83;;;3.90;99.90;;;;;;5114396;28;20039;-63
2022/11/24 03:09:09;;;;;;;89.15;44.30;;;3.70;99.90;;;;;;5114534;28;20031;-63
2022/11/24 03:11:35;;;;;;;76.80;41.53;;;3.70;99.90;;;;;;5114072;28;20556;-62
2022/11/24 03:14:01;;;;;;;70.82;35.90;;;3.70;99.90;;;;;;5114020;28;20016;-63
2022/11/24 03:16:27;;;;;;;78.43;36.17;;;3.60;99.90;;;;;;5114645;28;20027;-63
2022/11/24 03:18:52;;;;;;;80.43;36.17;;;3.60;99.90;;;;;;5118288;28;20019;-63
2022/11/24 03:21:19;;;;;;;72.07;35.03;;;3.60;99.90;;;;;;5118746;28;20350;-63
2022/11/24 03:23:45;;;;;;;59.25;29.10;;;3.60;99.90;;;;;;5118331;28;20107;-63
2022/11/24 03:26:14;;;;;;;57.13;29.30;;;3.60;99.90;;;;;;5118502;28;20024;-63
2022/11/24 03:28:40;;;;;;;61.83;30.10;;;3.50;99.90;;;;;;5118270;28;20081;-62
2022/11/24 03:31:07;;;;;;;69.32;34.78;;;3.50;99.90;;;;;;5118363;28;20119;-63
2022/11/24 03:33:34;;;;;;;59.22;31.15;;;3.50;99.90;;;;;;5117924;28;20048;-62
2022/11/24 03:35:59;;;;;;;57.50;27.40;;;3.40;99.90;;;;;;5118415;28;20035;-62
2022/11/24 03:38:26;;;;;;;48.17;24.00;;;3.30;99.90;;;;;;5118275;28;20020;-63
2022/11/24 03:40:52;;;;;;;49.25;25.13;;;3.20;99.90;;;;;;5118120;28;20027;-62
2022/11/24 03:43:18;;;;;;;61.65;27.65;;;3.00;99.90;;;;;;5118381;28;20028;-63
2022/11/24 03:45:48;;;;;;;133.45;51.25;;;2.90;99.90;;;;;;5118040;28;20031;-63
2022/11/24 03:48:15;;;;;;;145.30;61.72;;;3.00;99.90;;;;;;5117892;28;20102;-63
2022/11/24 03:50:42;;;;;;;299.63;121.32;;;3.10;99.90;;;;;;5117779;28;20097;-62
2022/11/24 03:53:08;;;;;;;307.27;125.72;;;3.20;99.90;;;;;;5117955;28;20095;-63
2022/11/24 03:55:34;;;;;;;255.23;107.25;;;3.30;99.90;;;;;;5117708;28;20054;-62
2022/11/24 03:58:00;;;;;;;198.25;81.10;;;3.20;99.90;;;;;;5118154;28;20103;-63
2022/11/24 04:00:26;;;;;;;138.45;57.75;;;3.10;99.90;;;;;;5117623;28;20039;-62
2022/11/24 04:02:53;;;;;;;98.22;47.47;;;3.00;99.90;;;;;;5117635;28;20118;-63
2022/11/24 04:05:19;;;;;;;128.95;61.35;;;2.90;99.90;;;;;;5118087;28;20019;-62
2022/11/24 04:07:45;;;;;;;130.70;58.90;;;3.00;99.90;;;;;;5117544;28;20031;-64
2022/11/24 04:10:10;;;;;;;140.38;60.53;;;2.90;99.90;;;;;;5117569;28;20032;-62
2022/11/24 04:12:42;;;;;;;160.48;71.85;;;2.70;99.90;;;;;;5117485;28;20032;-63
2022/11/24 04:15:16;;;;;;;227.15;92.53;;;2.70;99.90;;;;;;5117261;28;20112;-62
2022/11/24 04:17:43;;;;;;;219.60;96.38;;;2.70;99.90;;;;;;5117124;28;20116;-63
2022/11/24 04:20:10;;;;;;;213.00;92.35;;;2.70;99.90;;;;;;5117505;28;20028;-62
2022/11/24 04:22:37;;;;;;;185.82;81.53;;;2.60;99.90;;;;;;5117089;28;20092;-63
2022/11/24 04:25:03;;;;;;;233.07;105.75;;;2.60;99.90;;;;;;5117389;28;20027;-63
2022/11/24 04:27:31;;;;;;;191.55;86.00;;;2.60;99.90;;;;;;5116705;28;20020;-63
2022/11/24 04:29:57;;;;;;;144.35;65.50;;;2.60;99.90;;;;;;5117100;28;20460;-63
2022/11/24 04:32:23;;;;;;;155.50;68.60;;;2.50;99.90;;;;;;5117447;28;20047;-62
2022/11/24 04:34:49;;;;;;;189.25;81.78;;;2.50;99.90;;;;;;5117101;28;20019;-62
2022/11/24 04:37:15;;;;;;;174.65;78.28;;;2.50;99.90;;;;;;5117068;28;20030;-63
2022/11/24 04:39:41;;;;;;;142.40;64.25;;;2.50;99.90;;;;;;5117001;28;20100;-63
2022/11/24 04:42:07;;;;;;;131.02;56.53;;;2.60;99.90;;;;;;5117005;28;20093;-63
2022/11/24 04:44:33;;;;;;;109.93;49.30;;;2.60;99.90;;;;;;5116750;28;20035;-62
2022/11/24 04:46:59;;;;;;;87.95;43.58;;;2.60;99.90;;;;;;5117133;28;20024;-63
2022/11/24 04:49:25;;;;;;;79.00;39.00;;;2.70;99.90;;;;;;5116770;28;20032;-62
2022/11/24 04:51:51;;;;;;;69.45;35.00;;;2.80;99.90;;;;;;5116409;28;20035;-63
2022/11/24 04:54:17;;;;;;;66.50;33.50;;;2.90;99.90;;;;;;5117127;28;20027;-62
2022/11/24 04:56:43;;;;;;;65.65;33.55;;;3.00;99.90;;;;;;5116752;28;20768;-63
2022/11/24 04:59:15;;;;;;;68.22;33.60;;;3.00;99.90;;;;;;5116827;28;20043;-63
2022/11/24 05:01:41;;;;;;;67.38;32.42;;;3.00;99.90;;;;;;5116467;28;20481;-62
2022/11/24 05:04:10;;;;;;;68.75;33.97;;;3.00;99.90;;;;;;5116654;28;20023;-63
2022/11/24 05:06:36;;;;;;;61.10;32.38;;;3.00;99.90;;;;;;5116346;28;20039;-62
2022/11/24 05:09:03;;;;;;;66.70;32.33;;;3.00;99.90;;;;;;5116531;28;20111;-63
2022/11/24 05:11:29;;;;;;;62.63;30.73;;;3.00;99.90;;;;;;5116272;28;20438;-63
2022/11/24 05:13:54;;;;;;;72.97;34.47;;;3.00;99.90;;;;;;5116088;28;20024;-62
2022/11/24 05:16:20;;;;;;;106.75;46.85;;;3.10;99.90;;;;;;5116506;28;20111;-63
2022/11/24 05:18:46;;;;;;;133.05;56.35;;;3.10;99.90;;;;;;5097752;28;20031;-62
2022/11/24 05:21:12;;;;;;;133.10;56.85;;;3.20;99.90;;;;;;5116408;28;20024;-63
2022/11/24 05:23:38;;;;;;;147.82;59.65;;;3.20;99.90;;;;;;5115969;28;20026;-62
2022/11/24 05:26:04;;;;;;;123.32;56.63;;;3.30;99.90;;;;;;5115973;28;20095;-63
2022/11/24 05:28:30;;;;;;;118.10;53.22;;;3.20;99.90;;;;;;5115989;28;20426;-62
2022/11/24 05:31:03;;;;;;;116.68;51.55;;;3.20;99.90;;;;;;5116100;28;20036;-63
2022/11/24 05:33:32;;;;;;;115.25;49.25;;;3.20;99.90;;;;;;5115647;28;20103;-63
2022/11/24 05:36:02;;;;;;;97.47;47.45;;;3.20;99.90;;;;;;5116208;28;20030;-63
2022/11/24 05:38:29;;;;;;;109.95;51.10;;;3.30;99.90;;;;;;5097470;28;20027;-63
2022/11/24 05:40:59;;;;;;;103.90;48.08;;;3.40;99.90;;;;;;5114932;28;20024;-63
2022/11/24 05:43:25;;;;;;;;;;;3.50;99.90;;;;;;5116170;28;20036;-63
2022/11/24 05:45:51;;;;;;;86.72;40.03;;;3.40;99.90;;;;;;5115831;28;19973;-62
2022/11/24 05:48:17;;;;;;;80.60;39.72;;;3.50;99.90;;;;;;5115447;28;20491;-63
2022/11/24 05:50:43;;;;;;;85.20;39.50;;;3.60;99.90;;;;;;5115333;28;20465;-63
2022/11/24 05:53:12;;;;;;;92.57;43.85;;;3.60;99.90;;;;;;5115579;28;20500;-62
2022/11/24 05:55:39;;;;;;;97.78;44.60;;;3.60;99.90;;;;;;5115133;28;20053;-63
2022/11/24 05:58:07;;;;;;;81.80;37.97;;;3.50;99.90;;;;;;5115361;28;20030;-62
2022/11/24 06:00:35;;;;;;;82.82;39.97;;;3.60;99.90;;;;;;5115693;28;20369;-63
2022/11/24 06:03:01;;;;;;;90.55;45.22;;;3.70;99.90;;;;;;5115344;28;20717;-62
2022/11/24 06:05:28;;;;;;;132.38;72.00;;;3.70;99.90;;;;;;5115184;28;20024;-63
2022/11/24 06:07:54;;;;;;;151.02;78.03;;;3.70;99.90;;;;;;5115272;28;20024;-63
2022/11/24 06:10:22;;;;;;;114.45;58.92;;;3.70;99.90;;;;;;5096923;28;20038;-63
2022/11/24 06:12:49;;;;;;;124.68;57.65;;;3.70;99.90;;;;;;5115035;28;20024;-63
2022/11/24 06:15:16;;;;;;;142.15;67.20;;;3.80;99.90;;;;;;5110351;28;20031;-63
2022/11/24 06:17:42;;;;;;;227.77;105.05;;;3.90;99.90;;;;;;5110125;27;20027;-63
2022/11/24 06:20:09;;;;;;;232.18;107.75;;;3.90;99.90;;;;;;5135298;27;20019;-62
2022/11/24 06:22:36;;;;;;;150.75;68.75;;;4.00;99.90;;;;;;5117947;27;20431;-63
2022/11/24 06:25:02;;;;;;;216.77;97.57;;;4.00;99.90;;;;;;5109404;28;20020;-63
2022/11/24 06:27:28;;;;;;;154.35;71.00;;;4.10;99.90;;;;;;5107848;28;20469;-63
2022/11/24 06:29:54;;;;;;;102.72;52.70;;;4.10;99.90;;;;;;5109263;28;20036;-63
2022/11/24 06:32:20;;;;;;;94.97;46.92;;;4.20;99.90;;;;;;5113282;28;20020;-63
2022/11/24 06:34:46;;;;;;;97.60;44.95;;;4.20;99.90;;;;;;5113616;28;20023;-62
2022/11/24 06:37:12;;;;;;;119.13;53.13;;;4.30;99.90;;;;;;5112845;28;20020;-63
2022/11/24 06:39:38;;;;;;;124.55;51.28;;;4.30;99.90;;;;;;5110465;27;20019;-62
2022/11/24 06:42:04;;;;;;;118.72;47.58;;;4.30;99.90;;;;;;5107117;28;20050;-63
2022/11/24 06:44:30;;;;;;;146.98;56.95;;;4.30;99.90;;;;;;5114354;28;20119;-63
2022/11/24 06:46:55;;;;;;;118.10;50.90;;;4.40;99.90;;;;;;5094925;27;20063;-63
2022/11/24 06:49:21;;;;;;;139.00;58.58;;;4.40;99.90;;;;;;5097644;27;20049;-62
2022/11/24 06:51:47;;;;;;;158.00;65.50;;;4.40;99.90;;;;;;5105387;28;20027;-64
2022/11/24 06:54:15;;;;;;;179.05;75.82;;;4.60;99.90;;;;;;5099533;27;20465;-63
2022/11/24 06:56:41;;;;;;;159.75;69.25;;;4.70;99.90;;;;;;5105517;28;20024;-63
2022/11/24 06:59:17;;;;;;;178.15;76.20;;;4.80;99.90;;;;;;5105003;28;20119;-62
2022/11/24 07:01:43;;;;;;;148.20;64.85;;;4.70;99.90;;;;;;5112160;28;20457;-63
2022/11/24 07:04:10;;;;;;;122.70;53.67;;;4.80;99.90;;;;;;5103284;28;20028;-63
2022/11/24 07:06:36;;;;;;;151.00;61.28;;;4.70;99.90;;;;;;5102069;28;20015;-63
2022/11/24 07:09:02;;;;;;;137.35;59.35;;;4.90;99.90;;;;;;5110942;28;20020;-63
2022/11/24 07:11:28;;;;;;;138.32;62.50;;;4.90;99.90;;;;;;5135031;28;20031;-62
2022/11/24 07:13:54;;;;;;;148.23;63.63;;;4.80;99.90;;;;;;5134533;28;20062;-63
2022/11/24 07:16:22;;;;;;;175.07;69.22;;;4.90;99.90;;;;;;5116785;28;20020;-63
2022/11/24 07:18:50;;;;;;;147.93;64.50;;;5.00;99.90;;;;;;5117749;28;20022;-62
2022/11/24 07:21:16;;;;;;;163.02;68.57;;;5.00;99.90;;;;;;5115067;28;20030;-63
2022/11/24 07:23:42;;;;;;;227.15;89.07;;;5.10;99.90;;;;;;5115231;28;20031;-63
2022/11/24 07:26:10;;;;;;;206.95;85.38;;;5.30;99.90;;;;;;5112219;28;20023;-63
2022/11/24 07:28:36;;;;;;;268.67;104.10;;;5.30;99.90;;;;;;5115037;28;20031;-63
2022/11/24 07:31:18;;;;;;;206.55;86.15;;;5.30;99.90;;;;;;5114981;28;20479;-63
2022/11/24 07:33:51;;;;;;;244.38;97.63;;;5.30;99.90;;;;;;5114186;28;20059;-63
2022/11/24 07:36:18;;;;;;;239.52;96.22;;;5.30;99.90;;;;;;5114032;28;20537;-63
2022/11/24 07:38:44;;;;;;;221.73;90.78;;;5.30;99.90;;;;;;5114379;28;20465;-63
2022/11/24 07:41:11;;;;;;;208.00;87.85;;;5.40;99.90;;;;;;5113978;28;20024;-62
2022/11/24 07:43:38;;;;;;;253.90;103.32;;;5.40;99.90;;;;;;5114128;28;20347;-63
2022/11/24 07:46:06;;;;;;;255.02;103.88;;;5.40;99.90;;;;;;5114244;28;20469;-63
2022/11/24 07:48:32;;;;;;;266.30;108.55;;;5.40;99.90;;;;;;5110572;28;20490;-62
2022/11/24 07:50:59;;;;;;;263.05;109.57;;;5.50;99.90;;;;;;5110265;28;20373;-63
2022/11/24 07:53:26;;;;;;;267.27;111.82;;;5.40;99.90;;;;;;5112683;28;20039;-63
2022/11/24 07:55:58;;;;;;;247.68;103.07;;;5.50;99.90;;;;;;5107622;28;20079;-63
2022/11/24 07:58:25;;;;;;;228.05;98.75;;;5.50;99.90;;;;;;5113925;28;20023;-63
2022/11/24 08:00:51;;;;;;;229.13;98.40;;;5.70;99.90;;;;;;5102783;28;20118;-63
2022/11/24 08:03:17;;;;;;;216.05;92.00;;;5.70;99.90;;;;;;5106573;27;20118;-63
2022/11/24 08:05:43;;;;;;;188.05;82.25;;;5.90;99.90;;;;;;5112713;27;20035;-63
2022/11/24 08:08:09;;;;;;;176.23;79.88;;;5.90;99.90;;;;;;5081265;28;20055;-63
2022/11/24 08:10:34;;;;;;;145.73;64.78;;;6.00;99.90;;;;;;5104814;27;20028;-63
2022/11/24 08:13:01;;;;;;;144.02;61.15;;;6.20;99.90;;;;;;5129341;27;20084;-63
2022/11/24 08:15:27;;;;;;;126.18;57.58;;;6.20;99.90;;;;;;5109817;28;20043;-63
2022/11/24 08:17:54;;;;;;;147.93;65.47;;;6.40;99.90;;;;;;5110225;27;21884;-63
2022/11/24 08:20:20;;;;;;;159.20;68.28;;;6.60;99.90;;;;;;5111627;27;20026;-63
2022/11/24 08:22:46;;;;;;;147.10;60.78;;;6.70;99.90;;;;;;5114084;28;20028;-63
2022/11/24 08:25:14;;;;;;;151.13;59.00;;;6.90;99.90;;;;;;5115601;28;20031;-64
2022/11/24 08:27:40;;;;;;;195.27;74.15;;;6.80;99.90;;;;;;5107312;28;20028;-64
2022/11/24 08:30:06;;;;;;;175.20;67.90;;;6.70;99.90;;;;;;5096977;28;20028;-63
2022/11/24 08:32:32;;;;;;;165.00;65.40;;;6.80;99.90;;;;;;5107919;28;20035;-63
2022/11/24 08:34:58;;;;;;;116.78;55.95;;;6.90;99.90;;;;;;5115700;28;20024;-63
2022/11/24 08:37:26;;;;;;;120.68;56.90;;;7.10;99.90;;;;;;5103384;28;20032;-63
2022/11/24 08:39:52;;;;;;;106.70;54.90;;;7.20;99.90;;;;;;5111890;28;20043;-63
2022/11/24 08:42:18;;;;;;;106.10;53.75;;;7.20;99.90;;;;;;5110630;28;20325;-63
2022/11/24 08:44:44;;;;;;;124.75;55.83;;;7.30;99.90;;;;;;5109658;28;20115;-63
2022/11/24 08:47:09;;;;;;;105.88;55.35;;;7.10;99.90;;;;;;5104018;28;20081;-63
2022/11/24 08:49:35;;;;;;;129.63;57.60;;;7.20;99.90;;;;;;5112857;28;20045;-63
2022/11/24 08:52:01;;;;;;;106.70;53.80;;;7.40;99.90;;;;;;5113793;28;20015;-63
2022/11/24 08:54:27;;;;;;;113.03;52.22;;;7.40;99.90;;;;;;5115370;28;20031;-63
2022/11/24 08:56:53;;;;;;;142.50;62.47;;;7.50;99.90;;;;;;5114185;27;20152;-63
2022/11/24 08:59:19;;;;;;;170.38;70.93;;;7.60;99.90;;;;;;5114078;27;20066;-63
2022/11/24 09:01:45;;;;;;;118.45;58.17;;;7.80;99.90;;;;;;5102608;28;20024;-63
2022/11/24 09:04:11;;;;;;;120.47;57.55;;;7.80;99.90;;;;;;5096005;28;20036;-64
2022/11/24 09:06:37;;;;;;;121.07;58.38;;;7.80;99.90;;;;;;5097135;28;20027;-63
2022/11/24 09:09:03;;;;;;;134.02;59.33;;;8.10;99.90;;;;;;5102769;28;20160;-63
2022/11/24 09:11:29;;;;;;;106.90;53.03;;;8.00;99.90;;;;;;5105423;28;20380;-63
2022/11/24 09:13:55;;;;;;;82.72;44.88;;;8.10;99.90;;;;;;5115309;28;20024;-63
2022/11/24 09:16:25;;;;;;;99.93;47.55;;;8.30;99.90;;;;;;5113249;28;20412;-63
2022/11/24 09:18:58;;;;;;;107.75;48.05;;;8.50;99.90;;;;;;5115236;28;20125;-63
2022/11/24 09:21:25;;;;;;;112.40;55.65;;;8.60;99.90;;;;;;5116504;28;20050;-63
2022/11/24 09:23:52;;;;;;;129.63;63.00;;;9.10;99.90;;;;;;5106950;28;20024;-63
2022/11/24 09:26:22;;;;;;;110.35;51.22;;;9.90;99.90;;;;;;5094213;28;20116;-63
2022/11/24 09:28:48;;;;;;;107.97;46.90;;;11.40;99.90;;;;;;5098815;28;20024;-63
2022/11/24 09:31:16;;;;;;;78.40;40.88;;;12.10;95.00;;;;;;5095719;28;20028;-63
2022/11/24 09:33:43;;;;;;;84.82;42.38;;;13.40;90.20;;;;;;5099612;28;20542;-63
2022/11/24 09:36:10;;;;;;;62.70;32.80;;;14.80;83.40;;;;;;5105712;28;20028;-63
2022/11/24 09:38:36;;;;;;;63.70;30.30;;;15.40;73.80;;;;;;5098581;28;20437;-63
2022/11/24 09:41:44;;;;;;;62.20;27.13;;;15.40;70.10;;;;;;5095318;28;20111;-64
2022/11/24 09:44:25;;;;;;;40.33;20.13;;;16.00;70.00;;;;;;5095027;28;20030;-64
2022/11/24 09:47:09;;;;;;;;;;;16.60;63.50;;;;;;5095611;28;20030;-64
2022/11/24 09:49:45;;;;;;;36.58;18.70;;;16.70;61.70;;;;;;5095120;28;19912;-64
2022/11/24 09:52:17;;;;;;;60.53;24.55;;;17.10;60.00;;;;;;5097349;28;20028;-63
2022/11/24 09:54:58;;;;;;;53.88;24.25;;;17.40;57.30;;;;;;5103060;28;20035;-63
2022/11/24 09:57:28;;;;;;;49.83;24.48;;;17.50;57.20;;;;;;5107323;28;20472;-64
2022/11/24 10:00:11;;;;;;;50.25;24.50;;;17.90;54.70;;;;;;5114698;28;20125;-64
2022/11/24 10:02:37;;;;;;;45.80;23.67;;;17.70;56.40;;;;;;5107851;28;20043;-64
2022/11/24 10:05:05;;;;;;;49.17;24.50;;;17.70;56.30;;;;;;5115657;28;20102;-64
2022/11/24 10:07:47;;;;;;;57.83;27.52;;;17.90;54.70;;;;;;5116111;28;20107;-64
2022/11/24 10:10:55;;;;;;;54.78;23.90;;;18.10;53.20;;;;;;5115896;28;20042;-64
2022/11/24 10:13:45;;;;;;;58.05;26.35;;;18.60;52.40;;;;;;5115321;28;20040;-65
2022/11/24 10:16:37;;;;;;;55.05;26.80;;;18.90;51.30;;;;;;5113366;28;20389;-65
2022/11/24 10:19:21;;;;;;;62.15;28.17;;;18.70;50.50;;;;;;5108484;28;20510;-64
2022/11/24 10:22:27;;;;;;;57.88;22.40;;;18.70;49.60;;;;;;5098536;28;20431;-64
2022/11/24 10:25:11;;;;;;;36.47;18.75;;;18.60;47.90;;;;;;5114636;28;20131;-65
2022/11/24 10:27:43;;;;;;;31.00;16.73;;;18.80;48.70;;;;;;5113194;28;20102;-64
2022/11/24 10:30:25;;;;;;;39.17;18.42;;;18.40;46.60;;;;;;5105912;27;20024;-65
2022/11/24 10:33:17;;;;;;;30.40;14.25;;;17.60;48.70;;;;;;5114501;28;20131;-65
2022/11/24 10:35:45;;;;;;;41.95;16.00;;;16.90;49.00;;;;;;5108271;28;20091;-64
2022/11/24 10:38:20;;;;;;;37.25;18.45;;;16.80;50.50;;;;;;5099117;28;20035;-64
2022/11/24 10:41:07;;;;;;;42.40;18.85;;;16.90;51.30;;;;;;5112907;28;20034;-64
2022/11/24 10:43:33;;;;;;;42.67;18.98;;;17.20;50.60;;;;;;5114529;28;20031;-64
2022/11/24 10:46:27;;;;;;;37.88;20.05;;;17.50;50.50;;;;;;5114490;28;20491;-64
2022/11/24 10:48:59;;;;;;;41.22;20.83;;;18.40;47.90;;;;;;5114243;28;20059;-64
2022/11/24 10:51:37;;;;;;;26.35;13.68;;;18.20;49.00;;;;;;5114951;28;20034;-65
2022/11/24 10:54:23;;;;;;;34.42;14.93;;;17.80;47.40;;;;;;5114436;28;20030;-64
2022/11/24 10:56:51;;;;;;;27.77;13.38;;;18.20;47.60;;;;;;5114283;28;20362;-64
2022/11/24 10:59:23;;;;;;;22.25;10.85;;;17.80;47.50;;;;;;5098217;28;20104;-64
2022/11/24 11:01:53;;;;;;;15.13;8.18;;;17.60;47.10;;;;;;5095654;28;20053;-64
2022/11/24 11:04:32;;;;;;;15.23;7.22;;;17.50;48.40;;;;;;5096837;28;20024;-64
2022/11/24 11:07:27;;;;;;;15.20;6.53;;;17.70;47.30;;;;;;5094258;28;20032;-64
2022/11/24 11:10:21;;;;;;;25.13;6.78;;;18.20;46.40;;;;;;5096550;28;20032;-64
2022/11/24 11:12:47;;;;;;;11.05;4.88;;;18.40;46.40;;;;;;5114974;28;20038;-64
2022/11/24 11:15:26;;;;;;;9.50;3.50;;;18.80;44.70;;;;;;5113048;28;20485;-64
2022/11/24 11:17:59;;;;;;;17.33;6.00;;;19.00;43.90;;;;;;5103172;28;20020;-64
2022/11/24 11:20:33;;;;;;;5.85;2.40;;;18.70;43.00;;;;;;5112421;28;20035;-65
2022/11/24 11:23:13;;;;;;;8.43;3.30;;;18.60;42.70;;;;;;5114015;28;20028;-65
2022/11/24 11:25:40;;;;;;;9.15;3.53;;;18.10;43.30;;;;;;5101726;28;20035;-65
2022/11/24 11:28:26;;;;;;;5.55;2.97;;;17.30;44.50;;;;;;5095016;28;20032;-65
2022/11/24 11:31:01;;;;;;;10.25;4.13;;;16.80;46.30;;;;;;5113761;28;20035;-65
2022/11/24 11:33:29;;;;;;;7.40;3.33;;;16.30;47.20;;;;;;5113454;28;20381;-65
2022/11/24 11:35:59;;;;;;;9.73;3.75;;;15.80;48.60;;;;;;5093980;28;20023;-65
2022/11/24 11:38:36;;;;;;;8.32;3.75;;;15.40;49.30;;;;;;5114980;28;20027;-65
2022/11/24 11:41:04;;;;;;;19.50;4.80;;;15.20;50.40;;;;;;5117996;28;20084;-65
2022/11/24 11:43:40;;;;;;;13.20;5.55;;;14.90;50.60;;;;;;5111711;28;20024;-65
2022/11/24 11:46:14;;;;;;;13.50;4.38;;;14.70;51.80;;;;;;5104320;28;20032;-65
2022/11/24 11:48:45;;;;;;;9.95;3.72;;;14.50;52.80;;;;;;5099911;28;20111;-64
2022/11/24 11:51:32;;;;;;;27.95;5.10;;;14.20;52.40;;;;;;5098501;28;20497;-65
2022/11/24 11:54:20;;;;;;;15.23;5.78;;;14.10;53.20;;;;;;5114639;28;20043;-65
2022/11/24 11:57:15;;;;;;;18.67;6.55;;;14.10;53.70;;;;;;5107385;28;20031;-65
2022/11/24 12:00:02;;;;;;;16.35;4.82;;;14.00;54.10;;;;;;5116373;28;20031;-64
2022/11/24 12:02:54;;;;;;;10.10;3.72;;;14.10;53.90;;;;;;5117934;28;20032;-64
2022/11/24 12:05:33;;;;;;;12.80;4.82;;;14.20;53.30;;;;;;5117605;28;20370;-63
2022/11/24 12:08:14;;;;;;;16.40;4.80;;;14.10;54.30;;;;;;5117409;28;20035;-63
2022/11/24 12:10:59;;;;;;;10.95;3.03;;;14.10;54.70;;;;;;5116782;28;20032;-64
2022/11/24 12:13:49;;;;;;;7.38;3.67;;;14.00;53.30;;;;;;5116569;28;20281;-63
2022/11/24 12:16:17;;;;;;;7.93;3.67;;;13.80;53.80;;;;;;5110863;28;20478;-63
2022/11/24 12:18:49;;;;;;;11.35;5.97;;;13.70;53.70;;;;;;5115361;28;20609;-63
2022/11/24 12:21:17;;;;;;;9.57;4.60;;;13.80;54.90;;;;;;5116884;28;20024;-63
2022/11/24 12:24:17;;;;;;;8.30;4.47;;;13.60;54.50;;;;;;5098502;28;20028;-63
2022/11/24 12:27:10;;;;;;;15.20;6.05;;;13.60;55.80;;;;;;5078448;28;20354;-63
2022/11/24 12:29:48;;;;;;;22.25;6.03;;;13.50;57.10;;;;;;5114999;28;20484;-63
2022/11/24 12:32:41;;;;;;;11.88;4.78;;;13.50;56.20;;;;;;5117562;28;20030;-63
2022/11/24 12:35:22;;;;;;;11.60;5.10;;;13.50;55.80;;;;;;5085584;28;20152;-64
2022/11/24 12:37:54;;;;;;;;;;;13.20;56.60;;;;;;5117884;27;20034;-63
2022/11/24 12:40:41;;;;;;;17.23;6.97;;;13.20;57.60;;;;;;5106413;28;19912;-63
2022/11/24 12:43:28;;;;;;;8.38;3.40;;;13.10;57.90;;;;;;5105802;28;20024;-63
2022/11/24 12:46:14;;;;;;;12.45;4.85;;;13.20;57.10;;;;;;5098421;28;20111;-63
2022/11/24 12:48:49;;;;;;;12.98;4.55;;;12.90;57.60;;;;;;5116364;28;20027;-63
2022/11/24 12:51:23;;;;;;;14.52;4.45;;;12.70;58.70;;;;;;5114945;28;20019;-63